createdAt,value
2019-04-26T00:04:54.627Z,70.48
2019-04-26T00:09:50.743Z,70.22
2019-04-26T00:15:05.139Z,71.21
2019-04-26T00:20:01.663Z,71.97
2019-04-26T00:24:57.875Z,71.62
2019-04-26T00:29:53.792Z,72.18
2019-04-26T00:34:49.712Z,72.76
2019-04-26T00:39:45.626Z,73.26
2019-04-26T00:44:41.954Z,73.56
2019-04-26T00:49:43.878Z,74.20
2019-04-26T00:54:35.892Z,73.96
2019-04-26T00:59:32.208Z,75.68
2019-04-26T01:04:28.226Z,77.33
2019-04-26T01:09:24.444Z,78.24
2019-04-26T01:14:20.354Z,76.46
2019-04-26T01:19:18.557Z,78.59
2019-04-26T01:24:16.885Z,78.47
2019-04-26T01:29:15.246Z,78.18
2019-04-26T01:34:11.385Z,79.16
2019-04-26T01:39:09.403Z,80.47
2019-04-26T01:44:10.524Z,81.45
2019-04-26T01:49:08.443Z,81.69
2019-04-26T01:54:04.961Z,82.31
2019-04-26T01:59:01.055Z,80.84
2019-04-26T02:03:57.108Z,82.17
2019-04-26T02:08:53.136Z,83.10
2019-04-26T02:13:49.247Z,83.63
2019-04-26T02:18:45.534Z,83.37
2019-04-26T02:23:46.126Z,81.96
2019-04-26T02:28:42.055Z,82.80
2019-04-26T02:33:38.079Z,84.06
2019-04-26T02:38:34.793Z,83.22
2019-04-26T02:43:33.878Z,83.34
2019-04-26T02:48:38.025Z,82.64
2019-04-26T02:53:54.695Z,83.11
2019-04-26T02:59:00.289Z,83.95
2019-04-26T03:03:57.418Z,83.53
2019-04-26T03:08:55.942Z,85.04
2019-04-26T03:14:01.243Z,84.45
2019-04-26T03:19:05.586Z,84.57
2019-04-26T03:24:08.093Z,85.16
2019-04-26T03:29:16.641Z,85.59
2019-04-26T03:34:21.170Z,86.25
2019-04-26T03:39:29.017Z,85.26
2019-04-26T03:44:44.172Z,86.07
2019-04-26T03:49:55.848Z,87.03
2019-04-26T03:55:01.601Z,87.54
2019-04-26T04:00:08.458Z,87.75
2019-04-26T04:05:12.857Z,86.52
2019-04-26T04:10:15.158Z,87.18
2019-04-26T04:15:15.192Z,88.21
2019-04-26T04:20:44.531Z,88.68
2019-04-26T04:25:49.241Z,89.15
2019-04-26T04:31:01.327Z,89.21
2019-04-26T04:36:00.884Z,89.09
2019-04-26T04:41:15.287Z,88.50
2019-04-26T04:46:49.201Z,85.97
2019-04-26T04:51:56.333Z,85.53
2019-04-26T04:56:56.069Z,86.45
2019-04-26T05:02:06.699Z,86.36
2019-04-26T05:07:23.346Z,85.87
2019-04-26T05:12:41.047Z,85.71
2019-04-26T05:18:10.064Z,85.52
2019-04-26T05:23:18.366Z,85.45
2019-04-26T05:28:36.730Z,85.92
2019-04-26T05:33:36.944Z,85.89
2019-04-26T05:38:39.719Z,85.96
2019-04-26T05:43:50.225Z,85.34
2019-04-26T05:49:15.882Z,85.91
2019-04-26T05:54:54.016Z,85.67
2019-04-26T06:00:24.321Z,85.83
2019-04-26T06:05:38.423Z,85.42
2019-04-26T06:10:38.137Z,85.30
2019-04-26T06:16:02.382Z,85.52
2019-04-26T06:21:03.407Z,86.01
2019-04-26T06:26:35.737Z,85.80
2019-04-26T06:31:35.481Z,85.08
2019-04-26T06:36:36.745Z,85.31
2019-04-26T06:42:02.880Z,85.20
2019-04-26T06:47:22.437Z,84.85
2019-04-26T06:52:21.676Z,84.23
2019-04-26T06:57:32.567Z,84.12
2019-04-26T07:02:52.350Z,84.30
2019-04-26T07:08:07.453Z,84.08
2019-04-26T07:13:31.896Z,83.30
2019-04-26T07:18:34.325Z,83.31
2019-04-26T07:23:44.968Z,83.76
2019-04-26T07:29:06.946Z,83.19
2019-04-26T07:34:38.823Z,83.15
2019-04-26T07:40:11.537Z,84.10
2019-04-26T07:45:25.645Z,83.76
2019-04-26T07:51:00.015Z,83.27
2019-04-26T07:55:59.907Z,83.74
2019-04-26T08:01:01.560Z,83.60
2019-04-26T08:06:05.782Z,83.26
2019-04-26T08:11:22.213Z,83.83
2019-04-26T08:16:26.880Z,85.03
2019-04-26T08:21:32.441Z,85.71
2019-04-26T08:26:30.293Z,86.52
2019-04-26T08:31:27.585Z,87.05
2019-04-26T08:36:27.036Z,87.25
2019-04-26T08:41:24.128Z,87.87
2019-04-26T08:46:23.647Z,88.85
2019-04-26T08:51:23.436Z,89.17
2019-04-26T08:56:35.166Z,90.41
2019-04-26T09:01:36.281Z,90.45
2019-04-26T09:06:42.036Z,90.55
2019-04-26T09:11:39.574Z,90.82
2019-04-26T09:16:35.629Z,91.64
2019-04-26T09:21:42.968Z,91.63
2019-04-26T09:26:42.399Z,91.85
2019-04-26T09:31:43.417Z,91.36
2019-04-26T09:36:39.592Z,91.81
2019-04-26T09:41:35.707Z,92.42
2019-04-26T09:46:48.509Z,91.99
2019-04-26T09:51:44.135Z,91.36
2019-04-26T09:56:40.289Z,91.28
2019-04-26T10:01:36.358Z,91.23
2019-04-26T10:06:32.491Z,90.59
2019-04-26T10:11:30.450Z,89.36
2019-04-26T10:16:28.301Z,88.94
2019-04-26T10:21:24.436Z,89.82
2019-04-26T10:26:23.163Z,88.37
2019-04-26T10:31:18.679Z,88.46
2019-04-26T10:36:14.760Z,87.95
2019-04-26T10:41:10.985Z,87.62
2019-04-26T10:46:07.006Z,89.12
2019-04-26T10:51:07.471Z,85.96
2019-04-26T10:56:20.234Z,85.09
2019-04-26T11:01:20.882Z,86.06
2019-04-26T11:06:16.814Z,86.06
2019-04-26T11:11:12.837Z,85.96
2019-04-26T11:16:09.078Z,85.15
2019-04-26T11:21:05.674Z,83.78
2019-04-26T11:26:02.879Z,83.37
2019-04-26T11:30:59.033Z,84.04
2019-04-26T11:35:55.010Z,83.48
2019-04-26T11:41:05.154Z,85.41
2019-04-26T11:45:49.386Z,83.43
2019-04-26T11:50:53.670Z,83.59
2019-04-26T11:55:50.259Z,83.44
2019-04-26T12:00:54.012Z,81.41
2019-04-26T12:05:51.852Z,81.54
2019-04-26T12:10:47.781Z,79.90
2019-04-26T12:15:45.363Z,80.55
2019-04-26T12:20:45.627Z,78.11
2019-04-26T12:25:43.573Z,78.04
2019-04-26T12:30:39.604Z,77.53
2019-04-26T12:35:35.561Z,79.38
2019-04-26T12:40:31.536Z,80.57
2019-04-26T12:45:29.433Z,79.67
2019-04-26T12:50:41.973Z,78.91
2019-04-26T12:55:38.009Z,79.79
2019-04-26T13:00:37.390Z,79.46
2019-04-26T13:05:31.870Z,79.59
2019-04-26T13:10:31.330Z,79.50
2019-04-26T13:15:58.475Z,80.29
2019-04-26T13:21:02.934Z,80.57
2019-04-26T13:25:59.703Z,79.12
2019-04-26T13:30:55.067Z,80.31
2019-04-26T13:36:02.526Z,80.44
2019-04-26T13:40:48.920Z,79.57
2019-04-26T13:45:46.778Z,80.24
2019-04-26T13:50:48.891Z,80.39
2019-04-26T13:55:45.046Z,80.33
2019-04-26T14:00:43.453Z,80.78
2019-04-26T14:05:38.977Z,79.03
2019-04-26T14:10:34.988Z,80.03
2019-04-26T14:15:31.113Z,80.63
2019-04-26T14:20:38.430Z,80.33
2019-04-26T14:25:36.225Z,80.74
2019-04-26T14:30:32.264Z,81.69
2019-04-26T14:35:28.249Z,81.23
2019-04-26T14:40:24.331Z,82.11
2019-04-26T14:45:23.855Z,80.22
2019-04-26T14:50:19.608Z,79.36
2019-04-26T14:55:16.483Z,80.45
2019-04-26T15:00:16.684Z,79.55
2019-04-26T15:05:22.540Z,79.21
2019-04-26T15:10:20.376Z,79.33
2019-04-26T15:15:16.304Z,78.48
2019-04-26T15:20:12.795Z,78.14
2019-04-26T15:25:11.810Z,77.96
2019-04-26T15:30:09.174Z,78.34
2019-04-26T15:35:05.203Z,76.94
2019-04-26T15:40:19.988Z,76.49
2019-04-26T15:45:26.972Z,75.96
2019-04-26T15:55:33.871Z,75.40
2019-04-26T16:00:32.723Z,74.36
2019-04-26T16:05:29.498Z,74.93
2019-04-26T16:10:25.798Z,73.98
2019-04-26T16:15:23.332Z,73.78
2019-04-26T16:20:22.122Z,72.99
2019-04-26T16:25:18.254Z,73.15
2019-04-26T16:30:19.060Z,70.00
2019-04-26T16:35:18.342Z,70.97
2019-04-26T16:40:13.930Z,71.20
2019-04-26T16:45:10.134Z,69.69
2019-04-26T16:50:06.631Z,71.23
2019-04-26T16:55:05.051Z,71.22
2019-04-26T17:00:04.227Z,70.49
2019-04-26T17:05:04.615Z,69.55
2019-04-26T17:09:59.179Z,69.86
2019-04-26T17:14:54.538Z,70.79
2019-04-26T17:19:52.092Z,70.72
2019-04-26T17:24:55.890Z,69.60
2019-04-26T17:29:52.735Z,71.18
2019-04-26T17:34:48.929Z,73.14
2019-04-26T17:39:47.529Z,73.80
2019-04-26T17:44:42.675Z,74.18
2019-04-26T17:49:41.821Z,72.51
2019-04-26T17:54:45.917Z,73.31
2019-04-26T17:59:36.789Z,75.10
2019-04-26T18:04:36.930Z,76.51
2019-04-26T18:09:43.001Z,76.85
2019-04-26T18:14:31.861Z,77.55
2019-04-26T18:19:41.398Z,77.19
2019-04-26T18:24:37.324Z,77.41
2019-04-26T18:29:33.743Z,78.78
2019-04-26T18:34:30.598Z,79.46
2019-04-26T18:39:29.726Z,79.98
2019-04-26T18:44:36.297Z,80.83
2019-04-26T18:49:26.922Z,81.52
2019-04-26T18:54:29.939Z,81.81
2019-04-26T18:59:27.815Z,82.52
2019-04-26T19:04:23.809Z,81.71
2019-04-26T19:09:21.964Z,83.13
2019-04-26T19:14:48.779Z,84.24
2019-04-26T19:19:46.582Z,85.00
2019-04-26T19:24:44.786Z,85.08
2019-04-26T19:29:41.083Z,85.22
2019-04-26T19:34:38.755Z,85.55
2019-04-26T19:39:36.904Z,85.87
2019-04-26T19:44:32.662Z,85.75
2019-04-26T19:49:36.789Z,85.04
2019-04-26T19:54:44.620Z,86.29
2019-04-26T19:59:42.245Z,86.84
2019-04-26T20:04:38.562Z,86.88
2019-04-26T20:09:34.576Z,86.81
2019-04-26T20:14:45.063Z,87.48
2019-04-26T20:19:35.144Z,87.99
2019-04-26T20:24:28.302Z,87.68
2019-04-26T20:29:24.244Z,87.88
2019-04-26T20:34:21.797Z,88.37
2019-04-26T20:39:20.945Z,88.57
2019-04-26T20:44:22.384Z,88.97
2019-04-26T20:49:21.853Z,88.77
2019-04-26T20:54:18.511Z,88.83
2019-04-26T20:59:16.614Z,89.35
2019-04-26T21:04:33.810Z,89.22
2019-04-26T21:09:13.442Z,89.49
2019-04-26T21:14:10.248Z,89.24
2019-04-26T21:19:07.863Z,89.45
2019-04-26T21:24:05.696Z,89.31
2019-04-26T21:29:06.746Z,89.50
2019-04-26T21:34:11.844Z,89.78
2019-04-26T21:39:11.362Z,89.77
2019-04-26T21:44:12.270Z,89.78
2019-04-26T21:49:09.411Z,90.15
2019-04-26T21:54:05.773Z,89.75
2019-04-26T21:59:03.625Z,90.08
2019-04-26T22:04:00.147Z,90.59
2019-04-26T22:08:59.373Z,90.43
2019-04-26T22:14:00.227Z,89.42
2019-04-26T22:19:14.626Z,89.98
2019-04-26T22:24:13.267Z,90.12
2019-04-26T22:29:13.940Z,89.70
2019-04-26T22:34:08.845Z,90.12
2019-04-26T22:39:10.247Z,90.73
2019-04-26T22:44:13.971Z,91.29
2019-04-26T22:49:13.195Z,90.57
2019-04-26T22:54:09.062Z,90.66
2019-04-26T22:59:07.742Z,91.13
2019-04-26T23:04:03.485Z,91.03
2019-04-26T23:08:59.513Z,90.36
2019-04-26T23:14:04.496Z,90.50
2019-04-26T23:19:19.225Z,90.09
2019-04-26T23:24:18.890Z,90.14
2019-04-26T23:29:17.744Z,90.57
2019-04-26T23:34:14.273Z,90.11
2019-04-26T23:39:12.165Z,90.20
2019-04-26T23:44:08.253Z,90.23
2019-04-26T23:49:04.279Z,89.87
2019-04-26T23:54:00.912Z,89.95
2019-04-26T23:58:56.930Z,90.27
